Time;durP1;ratioP1;P1;durP2;ratioP2;P2;SDS_P1;SDS_P2;PMS_P1;PMS_P2;Temp;Humidity;BMP_temperature;BMP_pressure;BME280_temperature;BME280_humidity;BME280_pressure;Samples;Min_cycle;Max_cycle;Signal;HPM_P1;HPM_P2
2023/09/04 00:01:41;;;;;;;4.60;3.10;;;15.20;70.60;;;;;;5072646;28;20407;-68
2023/09/04 00:04:07;;;;;;;6.33;2.50;;;15.20;69.50;;;;;;5054635;28;20432;-69
2023/09/04 00:06:33;;;;;;;4.40;3.20;;;15.20;69.20;;;;;;5054750;28;20173;-69
2023/09/04 00:08:59;;;;;;;5.60;2.83;;;15.10;70.30;;;;;;5072639;28;20550;-69
2023/09/04 00:11:28;;;;;;;4.80;3.30;;;15.10;69.60;;;;;;5072377;28;20181;-69
2023/09/04 00:13:54;;;;;;;3.87;3.30;;;15.10;70.20;;;;;;5072542;28;20799;-69
2023/09/04 00:16:19;;;;;;;4.03;3.60;;;15.10;70.30;;;;;;5072729;28;20416;-68
2023/09/04 00:18:46;;;;;;;3.73;3.00;;;15.20;68.10;;;;;;5072443;28;20284;-69
2023/09/04 00:21:12;;;;;;;2.50;2.00;;;15.10;68.20;;;;;;5072662;28;20307;-68
2023/09/04 00:23:38;;;;;;;4.00;3.10;;;15.10;68.60;;;;;;5072371;28;20507;-68
2023/09/04 00:26:04;;;;;;;3.07;2.40;;;15.10;68.80;;;;;;5072403;28;20447;-68
2023/09/04 00:28:29;;;;;;;6.13;2.77;;;15.00;69.30;;;;;;5072330;28;20786;-69
2023/09/04 00:30:56;;;;;;;6.17;2.30;;;15.00;69.60;;;;;;5072677;28;20257;-69
2023/09/04 00:33:22;;;;;;;6.67;3.57;;;14.90;69.30;;;;;;5054068;28;20198;-69
2023/09/04 00:35:48;;;;;;;3.83;2.60;;;14.90;70.90;;;;;;5072552;28;20780;-68
2023/09/04 00:38:14;;;;;;;5.20;3.23;;;15.00;69.80;;;;;;5072326;28;20202;-68
2023/09/04 00:40:39;;;;;;;5.57;3.40;;;14.90;71.20;;;;;;5072186;28;20540;-69
2023/09/04 00:43:05;;;;;;;5.00;3.40;;;14.80;71.30;;;;;;5071921;28;20177;-69
2023/09/04 00:45:33;;;;;;;3.80;3.00;;;14.80;71.60;;;;;;5072164;28;20181;-68
2023/09/04 00:47:59;;;;;;;4.03;2.47;;;14.80;71.80;;;;;;5072077;28;20633;-68
2023/09/04 00:50:24;;;;;;;3.77;2.80;;;14.80;71.60;;;;;;5072153;28;20416;-68
2023/09/04 00:52:52;;;;;;;4.53;2.93;;;14.70;71.70;;;;;;5071783;28;20213;-68
2023/09/04 00:55:18;;;;;;;4.73;3.63;;;14.60;73.20;;;;;;5071796;28;20209;-69
2023/09/04 00:57:44;;;;;;;5.70;3.67;;;14.70;74.40;;;;;;5071978;28;20413;-69
2023/09/04 01:00:13;;;;;;;3.90;3.50;;;14.70;74.10;;;;;;5072042;28;20419;-69
2023/09/04 01:02:40;;;;;;;3.90;3.30;;;14.70;72.00;;;;;;5071721;28;20253;-68
2023/09/04 01:05:06;;;;;;;4.03;3.17;;;14.70;72.80;;;;;;5071916;28;20424;-69
2023/09/04 01:07:33;;;;;;;5.60;3.53;;;14.70;73.40;;;;;;5071868;28;20930;-69
2023/09/04 01:09:59;;;;;;;4.60;3.37;;;14.60;75.20;;;;;;5071901;28;20419;-68
2023/09/04 01:12:33;;;;;;;5.23;3.37;;;14.60;74.40;;;;;;5071417;28;20512;-68
2023/09/04 01:15:01;;;;;;;3.20;2.77;;;14.60;75.60;;;;;;5071968;28;20436;-68
2023/09/04 01:17:28;;;;;;;4.50;3.37;;;14.60;75.60;;;;;;5071966;28;20440;-68
2023/09/04 01:19:53;;;;;;;4.20;3.17;;;14.60;78.20;;;;;;5071687;28;20456;-68
2023/09/04 01:22:19;;;;;;;3.67;3.27;;;14.70;77.30;;;;;;5075076;28;20473;-68
2023/09/04 01:24:46;;;;;;;3.90;3.20;;;14.60;77.60;;;;;;5075801;28;20190;-68
2023/09/04 01:27:27;;;;;;;4.83;3.70;;;14.70;78.60;;;;;;5058222;28;20174;-68
2023/09/04 01:29:58;;;;;;;4.80;3.77;;;14.70;77.90;;;;;;5075784;28;20565;-69
2023/09/04 01:32:44;;;;;;;4.93;3.90;;;14.70;78.40;;;;;;5075357;28;20467;-69
2023/09/04 01:35:12;;;;;;;5.80;3.77;;;14.80;77.60;;;;;;5075630;28;20843;-68
2023/09/04 01:37:39;;;;;;;4.73;3.90;;;14.80;79.00;;;;;;5075605;28;20423;-68
2023/09/04 01:40:05;;;;;;;4.80;3.80;;;14.80;78.30;;;;;;5075611;28;20490;-68
2023/09/04 01:42:31;;;;;;;4.90;3.90;;;14.80;78.30;;;;;;5075083;28;20935;-69
2023/09/04 01:44:57;;;;;;;4.83;3.83;;;14.80;79.20;;;;;;5075416;28;20467;-68
2023/09/04 01:47:23;;;;;;;7.30;3.43;;;14.70;79.10;;;;;;5075320;28;20181;-68
2023/09/04 01:49:49;;;;;;;4.33;3.67;;;14.70;78.30;;;;;;5075284;28;20772;-69
2023/09/04 01:52:15;;;;;;;4.90;4.00;;;14.70;77.80;;;;;;5074970;28;20408;-68
2023/09/04 01:54:40;;;;;;;4.60;3.90;;;14.60;77.90;;;;;;5117169;22;20288;-71
2023/09/04 01:57:06;;;;;;;3.90;3.40;;;14.60;77.20;;;;;;5115976;28;20251;-70
2023/09/04 01:59:33;;;;;;;3.53;3.00;;;14.50;76.70;;;;;;5115828;28;20207;-71
2023/09/04 02:01:59;;;;;;;5.10;3.77;;;14.60;77.20;;;;;;5116065;28;20168;-71
2023/09/04 02:04:24;;;;;;;4.93;4.40;;;14.50;77.30;;;;;;5115652;28;20459;-71
2023/09/04 02:06:50;;;;;;;3.77;3.13;;;14.50;77.30;;;;;;5115613;28;20208;-71
2023/09/04 02:09:15;;;;;;;5.63;3.37;;;14.50;77.00;;;;;;5116013;28;20184;-69
2023/09/04 02:11:41;;;;;;;4.77;3.40;;;14.60;76.30;;;;;;5115303;28;20207;-70
2023/09/04 02:14:06;;;;;;;4.17;3.40;;;14.50;75.50;;;;;;5115640;28;20219;-70
2023/09/04 02:16:32;;;;;;;4.77;4.20;;;14.50;77.10;;;;;;5115492;28;20187;-70
2023/09/04 02:18:57;;;;;;;6.37;3.47;;;14.40;78.30;;;;;;5115625;28;20633;-70
2023/09/04 02:21:23;;;;;;;5.67;4.00;;;14.40;79.60;;;;;;5115580;28;20561;-70
2023/09/04 02:23:48;;;;;;;9.13;4.63;;;14.50;80.40;;;;;;5115426;28;20191;-70
2023/09/04 02:26:14;;;;;;;4.73;3.50;;;14.50;79.10;;;;;;5116107;28;20172;-70
2023/09/04 02:28:40;;;;;;;5.27;3.57;;;14.50;80.10;;;;;;5116234;28;20923;-70
2023/09/04 02:31:08;;;;;;;6.80;4.40;;;14.40;78.90;;;;;;5115619;28;20181;-70
2023/09/04 02:33:34;;;;;;;5.63;3.90;;;14.40;80.40;;;;;;5113829;28;20214;-70
2023/09/04 02:36:00;;;;;;;4.70;3.13;;;14.40;78.50;;;;;;5115389;28;20422;-70
2023/09/04 02:38:26;;;;;;;6.17;4.53;;;14.40;78.40;;;;;;5115079;28;20453;-70
2023/09/04 02:40:51;;;;;;;4.17;3.50;;;14.30;80.30;;;;;;5115186;28;20200;-70
2023/09/04 02:43:17;;;;;;;4.40;3.90;;;14.30;79.70;;;;;;5096599;28;20667;-70
2023/09/04 02:45:44;;;;;;;5.30;3.60;;;14.30;78.60;;;;;;5114790;28;20676;-70
2023/09/04 02:48:09;;;;;;;5.40;4.30;;;14.30;79.60;;;;;;5114858;28;20173;-70
2023/09/04 02:50:35;;;;;;;5.20;3.47;;;14.20;79.50;;;;;;5114641;28;20921;-70
2023/09/04 02:53:01;;;;;;;5.27;3.80;;;14.20;79.30;;;;;;5114669;28;20258;-70
2023/09/04 02:55:26;;;;;;;5.07;4.07;;;14.20;80.20;;;;;;5114627;28;20216;-69
2023/09/04 02:57:52;;;;;;;4.57;4.10;;;14.20;80.20;;;;;;5096389;28;20184;-71
2023/09/04 03:00:18;;;;;;;3.93;3.43;;;14.20;81.00;;;;;;5114604;28;20648;-70
2023/09/04 03:02:43;;;;;;;3.90;3.10;;;14.10;81.10;;;;;;5114426;28;20421;-70
2023/09/04 03:05:09;;;;;;;4.10;3.60;;;14.10;80.50;;;;;;5114925;28;20220;-70
2023/09/04 03:07:34;;;;;;;3.80;3.40;;;14.00;81.70;;;;;;5114455;28;20177;-70
2023/09/04 03:10:01;;;;;;;4.37;3.70;;;14.00;81.10;;;;;;5114528;28;20656;-71
2023/09/04 03:12:29;;;;;;;13.80;4.63;;;14.00;81.80;;;;;;5095698;28;20279;-71
2023/09/04 03:14:59;;;;;;;9.80;5.70;;;14.00;81.90;;;;;;5114273;28;20443;-71
2023/09/04 03:17:27;;;;;;;4.50;3.70;;;13.90;79.90;;;;;;5096132;28;20422;-71
2023/09/04 03:19:53;;;;;;;5.03;3.73;;;13.90;80.90;;;;;;5114531;28;21071;-71
2023/09/04 03:22:20;;;;;;;4.40;4.00;;;13.90;80.30;;;;;;5114014;28;20452;-71
2023/09/04 03:24:46;;;;;;;5.70;3.70;;;13.90;80.30;;;;;;5114177;28;20444;-70
2023/09/04 03:27:12;;;;;;;4.63;3.40;;;13.80;80.70;;;;;;5114209;28;20407;-71
2023/09/04 03:29:37;;;;;;;5.03;3.53;;;13.80;79.80;;;;;;5113997;28;20410;-71
2023/09/04 03:32:03;;;;;;;5.40;3.20;;;13.80;80.00;;;;;;5113778;28;20190;-71
2023/09/04 03:34:29;;;;;;;5.37;4.00;;;13.80;79.80;;;;;;5113935;28;20198;-71
2023/09/04 03:36:55;;;;;;;5.60;3.43;;;13.70;80.50;;;;;;5113969;28;20425;-71
2023/09/04 03:39:21;;;;;;;5.03;3.90;;;13.80;80.10;;;;;;5114101;28;20209;-71
2023/09/04 03:41:47;;;;;;;4.37;3.27;;;13.80;80.80;;;;;;5113620;28;20630;-71
2023/09/04 03:44:14;;;;;;;5.17;3.60;;;13.80;80.40;;;;;;5113814;28;20494;-71
2023/09/04 03:46:39;;;;;;;6.13;4.13;;;13.80;80.90;;;;;;5113844;28;20194;-71
2023/09/04 03:49:05;;;;;;;4.73;3.70;;;13.80;79.80;;;;;;5095709;28;20423;-71
2023/09/04 03:51:31;;;;;;;4.40;3.30;;;13.70;80.20;;;;;;5113607;28;20190;-71
2023/09/04 03:54:01;;;;;;;4.30;3.80;;;13.70;79.70;;;;;;5113550;28;20461;-71
2023/09/04 03:56:27;;;;;;;6.63;4.07;;;13.60;80.20;;;;;;5113575;28;20199;-71
2023/09/04 03:58:53;;;;;;;4.57;3.90;;;13.60;81.50;;;;;;5113543;28;20488;-71
2023/09/04 04:01:18;;;;;;;7.07;4.43;;;13.60;79.60;;;;;;5095401;28;20868;-71
2023/09/04 04:03:44;;;;;;;4.90;3.83;;;13.60;81.00;;;;;;5113087;28;20563;-70
2023/09/04 04:06:13;;;;;;;5.27;4.53;;;13.60;81.50;;;;;;5112796;28;20229;-71
2023/09/04 04:08:39;;;;;;;4.60;4.00;;;13.50;80.50;;;;;;5095011;28;20180;-70
2023/09/04 04:11:05;;;;;;;4.50;3.93;;;13.50;80.80;;;;;;5113193;28;20903;-70
2023/09/04 04:13:30;;;;;;;4.30;3.80;;;13.50;81.00;;;;;;5112770;28;20430;-71
2023/09/04 04:15:57;;;;;;;4.47;3.83;;;13.50;81.70;;;;;;5113209;28;20413;-71
2023/09/04 04:18:23;;;;;;;4.23;3.83;;;13.40;79.80;;;;;;5113086;28;20230;-70
2023/09/04 04:20:48;;;;;;;5.33;3.70;;;13.40;81.30;;;;;;5113218;28;20443;-71
2023/09/04 04:23:14;;;;;;;5.17;4.33;;;13.40;80.90;;;;;;5112805;28;20520;-70
2023/09/04 04:25:40;;;;;;;4.30;3.87;;;13.40;80.20;;;;;;5113053;28;20201;-70
2023/09/04 04:28:07;;;;;;;5.50;4.13;;;13.40;80.20;;;;;;5112804;28;20173;-70
2023/09/04 04:30:34;;;;;;;5.57;4.57;;;13.30;80.90;;;;;;5112930;28;20416;-70
2023/09/04 04:32:59;;;;;;;5.80;4.00;;;13.30;79.30;;;;;;5112576;28;20406;-70
2023/09/04 04:35:25;;;;;;;4.80;4.17;;;13.30;82.40;;;;;;5094565;28;20542;-70
2023/09/04 04:37:50;;;;;;;6.77;4.13;;;13.30;81.90;;;;;;5113163;28;20185;-69
2023/09/04 04:40:23;;;;;;;4.80;4.10;;;13.30;81.90;;;;;;5112687;28;20688;-70
2023/09/04 04:42:49;;;;;;;6.07;4.03;;;13.30;82.10;;;;;;5112658;28;20585;-72
2023/09/04 04:45:15;;;;;;;6.30;4.37;;;13.30;82.10;;;;;;5117880;28;20429;-71
2023/09/04 04:47:40;;;;;;;5.60;4.20;;;13.40;81.40;;;;;;5115775;28;20431;-71
2023/09/04 04:50:08;;;;;;;6.40;4.23;;;13.30;81.00;;;;;;5112834;28;20502;-71
2023/09/04 04:52:34;;;;;;;4.27;3.87;;;13.30;81.30;;;;;;5112386;28;20177;-72
2023/09/04 04:55:00;;;;;;;4.97;4.47;;;13.30;79.70;;;;;;5093430;28;21107;-71
2023/09/04 04:57:26;;;;;;;5.63;4.77;;;13.30;80.90;;;;;;5112495;28;20168;-71
2023/09/04 04:59:51;;;;;;;6.03;4.97;;;13.30;80.70;;;;;;5112582;28;20210;-72
2023/09/04 05:02:17;;;;;;;5.67;5.07;;;13.40;80.70;;;;;;5112670;28;20204;-72
2023/09/04 05:04:46;;;;;;;5.00;4.47;;;13.40;80.90;;;;;;5112776;28;20716;-73
2023/09/04 05:07:12;;;;;;;7.33;4.30;;;13.40;80.40;;;;;;5112859;28;20180;-71
2023/09/04 05:09:38;;;;;;;5.20;4.33;;;13.40;80.50;;;;;;5112374;28;20513;-72
2023/09/04 05:12:04;;;;;;;8.03;4.90;;;13.40;80.90;;;;;;5112051;28;20419;-72
2023/09/04 05:14:30;;;;;;;7.53;4.17;;;13.40;81.20;;;;;;5094354;28;20516;-72
2023/09/04 05:16:55;;;;;;;7.53;4.37;;;13.50;80.50;;;;;;5112531;28;20424;-72
2023/09/04 05:19:21;;;;;;;7.60;5.80;;;13.50;81.10;;;;;;5112510;28;20561;-72
2023/09/04 05:21:47;;;;;;;7.77;4.83;;;13.60;81.20;;;;;;5112536;28;20201;-72
2023/09/04 05:24:13;;;;;;;6.10;5.13;;;13.60;80.10;;;;;;5112422;28;20429;-72
2023/09/04 05:26:39;;;;;;;8.10;7.30;;;13.50;80.40;;;;;;5112859;28;20277;-72
2023/09/04 05:29:05;;;;;;;5.37;4.87;;;13.60;80.20;;;;;;5112725;28;20501;-72
2023/09/04 05:31:31;;;;;;;9.20;7.30;;;13.60;79.80;;;;;;5114253;28;20436;-71
2023/09/04 05:33:56;;;;;;;8.63;7.00;;;13.70;79.80;;;;;;5112964;28;20282;-69
2023/09/04 05:36:22;;;;;;;6.97;5.87;;;14.40;87.50;;;;;;5112969;28;20183;-70
2023/09/04 05:38:47;;;;;;;4.93;4.37;;;16.30;90.80;;;;;;5113221;28;20205;-70
2023/09/04 05:41:14;;;;;;;5.43;4.23;;;17.80;95.20;;;;;;5113001;28;20196;-70
2023/09/04 05:43:40;;;;;;;9.30;3.73;;;18.80;74.40;;;;;;5112702;28;20173;-70
2023/09/04 05:46:06;;;;;;;6.50;3.30;;;20.50;25.60;;;;;;5112376;28;20532;-70
2023/09/04 05:48:33;;;;;;;2.73;2.43;;;22.30;8.00;;;;;;5111562;28;20429;-71
2023/09/04 05:51:00;;;;;;;9.87;5.10;;;23.10;1.40;;;;;;5111987;28;20410;-70
2023/09/04 05:53:26;;;;;;;4.70;3.80;;;24.30;1.00;;;;;;5111630;28;20415;-70
2023/09/04 05:56:05;;;;;;;13.37;4.43;;;25.30;1.00;;;;;;5093359;28;20452;-70
2023/09/04 05:58:30;;;;;;;5.60;4.37;;;26.20;1.00;;;;;;5111794;28;20192;-70
2023/09/04 06:00:56;;;;;;;7.40;4.80;;;26.90;1.00;;;;;;5111900;28;20915;-69
2023/09/04 06:03:22;;;;;;;5.53;4.23;;;27.90;3.20;;;;;;5111653;28;20218;-70
2023/09/04 06:05:48;;;;;;;4.50;4.10;;;29.10;1.00;;;;;;5111685;28;20196;-70
2023/09/04 06:08:14;;;;;;;6.10;4.67;;;29.50;1.00;;;;;;5115070;28;20611;-70
2023/09/04 06:10:40;;;;;;;9.43;4.33;;;29.60;1.00;;;;;;5115547;28;20467;-70
2023/09/04 06:13:06;;;;;;;4.80;4.20;;;30.20;1.00;;;;;;5115578;28;20410;-70
2023/09/04 06:15:31;;;;;;;4.60;4.20;;;29.80;1.00;;;;;;5115500;28;20239;-70
2023/09/04 06:17:57;;;;;;;4.30;3.97;;;30.20;1.00;;;;;;5115410;28;20637;-70
2023/09/04 06:20:22;;;;;;;3.77;3.47;;;29.70;1.00;;;;;;5115235;28;20176;-70
2023/09/04 06:22:51;;;;;;;5.13;4.53;;;29.30;1.00;;;;;;5102806;28;20185;-70
2023/09/04 06:25:17;;;;;;;4.70;4.30;;;29.40;1.00;;;;;;5090374;28;20197;-70
2023/09/04 06:27:43;;;;;;;5.67;4.37;;;30.30;1.00;;;;;;5091199;28;20754;-71
2023/09/04 06:30:09;;;;;;;4.60;4.27;;;30.70;1.00;;;;;;5091830;28;20829;-71
2023/09/04 06:32:34;;;;;;;6.83;5.57;;;30.80;1.00;;;;;;5110330;28;20184;-69
2023/09/04 06:35:00;;;;;;;4.67;4.27;;;31.30;1.00;;;;;;5110621;28;20805;-70
2023/09/04 06:37:26;;;;;;;5.07;4.67;;;31.90;1.00;;;;;;5091270;28;20205;-70
2023/09/04 06:39:51;;;;;;;4.83;4.43;;;31.30;1.00;;;;;;5091153;28;20212;-70
2023/09/04 06:42:17;;;;;;;5.90;5.40;;;31.00;1.00;;;;;;5090699;28;20185;-70
2023/09/04 06:44:43;;;;;;;5.50;4.53;;;30.50;1.00;;;;;;5090954;28;20236;-70
2023/09/04 06:47:09;;;;;;;5.37;4.97;;;31.10;1.00;;;;;;5079064;28;20172;-70
2023/09/04 06:49:34;;;;;;;5.17;4.67;;;31.30;1.00;;;;;;5109923;28;20807;-71
2023/09/04 06:52:00;;;;;;;6.10;5.50;;;32.20;1.00;;;;;;5087552;28;20205;-71
2023/09/04 06:54:26;;;;;;;5.30;4.80;;;32.80;1.00;;;;;;5082077;28;20307;-71
2023/09/04 06:56:51;;;;;;;5.63;5.13;;;34.20;1.00;;;;;;5090302;28;20188;-69
2023/09/04 06:59:17;;;;;;;4.63;4.23;;;34.20;1.00;;;;;;5105458;28;20196;-70
2023/09/04 07:01:42;;;;;;;5.47;5.07;;;33.90;1.00;;;;;;5105480;28;20180;-70
2023/09/04 07:04:08;;;;;;;5.60;4.70;;;32.90;1.00;;;;;;5113869;28;20200;-71
2023/09/04 07:06:34;;;;;;;6.97;5.60;;;32.70;1.00;;;;;;5114136;28;20181;-69
2023/09/04 07:08:59;;;;;;;5.47;4.70;;;32.60;1.00;;;;;;5114007;28;20180;-70
2023/09/04 07:11:25;;;;;;;5.77;5.17;;;32.30;1.00;;;;;;5105007;28;20658;-70
2023/09/04 07:13:52;;;;;;;6.00;5.50;;;32.70;1.00;;;;;;5114309;28;20661;-71
2023/09/04 07:16:17;;;;;;;5.30;4.87;;;32.70;1.00;;;;;;5114242;28;20176;-71
2023/09/04 07:18:43;;;;;;;5.07;4.57;;;33.70;1.00;;;;;;5113693;28;20792;-69
2023/09/04 07:21:08;;;;;;;4.90;4.60;;;34.10;1.00;;;;;;5114768;28;20177;-70
2023/09/04 07:23:34;;;;;;;5.13;4.73;;;34.30;1.00;;;;;;5091040;28;20189;-70
2023/09/04 07:25:59;;;;;;;5.30;4.90;;;34.80;1.00;;;;;;5090445;28;20181;-70
2023/09/04 07:28:25;;;;;;;4.27;3.87;;;33.90;1.00;;;;;;5079379;28;20184;-69
2023/09/04 07:31:07;;;;;;;4.47;4.03;;;32.10;1.00;;;;;;5109276;28;20649;-68
2023/09/04 07:33:32;;;;;;;6.50;4.70;;;29.10;1.00;;;;;;5113494;28;20210;-70
2023/09/04 07:35:59;;;;;;;4.67;4.00;;;26.90;1.00;;;;;;5114018;28;20499;-70
2023/09/04 07:38:26;;;;;;;5.77;4.27;;;25.80;1.00;;;;;;5114520;28;20192;-69
2023/09/04 07:41:02;;;;;;;3.87;3.57;;;24.60;1.00;;;;;;5113981;28;20919;-69
2023/09/04 07:43:30;;;;;;;4.73;3.53;;;23.70;2.90;;;;;;5113719;28;20505;-68
2023/09/04 07:45:56;;;;;;;5.97;3.73;;;23.40;4.20;;;;;;5113814;28;20966;-69
2023/09/04 07:48:22;;;;;;;3.90;3.50;;;24.10;4.00;;;;;;5112251;28;20446;-69
2023/09/04 07:50:48;;;;;;;5.50;3.77;;;24.50;2.60;;;;;;5112279;28;20185;-70
2023/09/04 07:53:14;;;;;;;8.83;4.10;;;24.20;3.40;;;;;;5093043;28;20410;-69
2023/09/04 07:55:42;;;;;;;7.20;4.93;;;23.70;4.20;;;;;;5103062;28;20466;-68
2023/09/04 07:58:07;;;;;;;4.20;3.77;;;23.50;5.40;;;;;;5102329;28;20568;-69
2023/09/04 08:00:33;;;;;;;7.17;5.33;;;24.00;5.30;;;;;;5095145;28;20502;-69
2023/09/04 08:02:59;;;;;;;3.97;3.00;;;25.00;3.90;;;;;;5113491;28;20173;-68
2023/09/04 08:05:25;;;;;;;4.43;4.03;;;26.20;1.20;;;;;;5113879;28;20479;-69
2023/09/04 08:07:50;;;;;;;3.87;3.53;;;27.30;1.00;;;;;;5113718;28;20256;-69
2023/09/04 08:10:16;;;;;;;5.00;4.17;;;28.70;1.00;;;;;;5094529;28;20197;-69
2023/09/04 08:12:42;;;;;;;3.93;3.63;;;29.50;1.00;;;;;;5092846;28;20234;-68
2023/09/04 08:15:08;;;;;;;5.70;4.20;;;30.30;1.00;;;;;;5074345;28;20208;-70
2023/09/04 08:17:35;;;;;;;4.60;4.20;;;31.20;1.00;;;;;;5093191;28;20188;-69
2023/09/04 08:20:01;;;;;;;4.43;4.13;;;32.20;1.00;;;;;;5092689;28;20508;-69
2023/09/04 08:22:26;;;;;;;4.70;4.20;;;33.60;1.00;;;;;;5092615;28;20494;-69
2023/09/04 08:24:54;;;;;;;5.23;4.83;;;35.10;1.00;;;;;;5092800;28;20197;-69
2023/09/04 08:27:19;;;;;;;5.03;4.63;;;35.40;1.00;;;;;;5092503;28;20188;-69
2023/09/04 08:29:45;;;;;;;5.40;4.40;;;35.20;1.00;;;;;;5092836;28;20412;-70
2023/09/04 08:32:10;;;;;;;5.43;4.83;;;34.40;1.00;;;;;;5092446;28;20177;-69
2023/09/04 08:34:36;;;;;;;5.17;4.77;;;34.40;1.00;;;;;;5092596;28;20279;-70
2023/09/04 08:37:02;;;;;;;12.83;4.70;;;35.70;1.00;;;;;;5074482;28;20185;-69
2023/09/04 08:39:28;;;;;;;5.13;4.73;;;36.10;1.00;;;;;;5092662;28;20557;-69
2023/09/04 08:41:55;;;;;;;5.10;4.70;;;35.70;1.00;;;;;;5092470;28;20723;-70
2023/09/04 08:44:20;;;;;;;5.37;4.97;;;34.70;1.00;;;;;;5093054;28;20431;-70
2023/09/04 08:46:49;;;;;;;5.40;5.00;;;33.80;1.00;;;;;;5074562;28;20434;-70
2023/09/04 08:49:19;;;;;;;5.00;4.60;;;32.00;1.00;;;;;;5092530;28;20209;-70
2023/09/04 08:51:45;;;;;;;4.60;4.13;;;29.50;1.00;;;;;;5091914;28;20474;-70
2023/09/04 08:54:11;;;;;;;4.70;4.27;;;28.00;1.00;;;;;;5092150;28;20617;-70
2023/09/04 08:56:37;;;;;;;3.83;3.53;;;27.00;1.00;;;;;;5092283;28;20491;-69
2023/09/04 08:59:03;;;;;;;7.03;4.27;;;25.90;1.00;;;;;;5092349;28;20239;-70
2023/09/04 09:01:33;;;;;;;3.97;3.67;;;25.20;1.00;;;;;;5092191;28;20908;-71
2023/09/04 09:04:01;;;;;;;7.53;3.90;;;24.70;1.00;;;;;;5092213;28;20192;-72
2023/09/04 09:06:27;;;;;;;4.10;3.80;;;24.60;1.00;;;;;;5092173;28;20411;-70
2023/09/04 09:08:56;;;;;;;4.07;3.50;;;24.40;1.00;;;;;;5092120;28;20439;-72
2023/09/04 09:11:22;;;;;;;3.97;3.67;;;24.30;1.00;;;;;;5092191;28;20782;-73
2023/09/04 09:13:48;;;;;;;4.10;3.80;;;24.30;1.00;;;;;;5091827;28;20492;-71
2023/09/04 09:16:18;;;;;;;4.07;3.70;;;24.20;1.00;;;;;;5092285;28;20892;-71
2023/09/04 09:18:44;;;;;;;8.30;4.30;;;24.20;1.00;;;;;;5092391;28;20223;-72
2023/09/04 09:21:29;;;;;;;4.00;3.70;;;24.20;1.00;;;;;;5092333;28;20513;-71
2023/09/04 09:24:18;;;;;;;5.80;3.63;;;24.20;1.00;;;;;;5091924;28;20196;-69
2023/09/04 09:26:48;;;;;;;4.40;3.77;;;24.30;1.00;;;;;;5091893;28;20418;-69
2023/09/04 09:29:15;;;;;;;4.67;3.90;;;24.30;1.00;;;;;;5086273;28;20483;-69
2023/09/04 09:31:44;;;;;;;4.47;4.07;;;24.40;1.00;;;;;;5107990;28;20707;-69
2023/09/04 09:34:10;;;;;;;5.60;3.93;;;24.40;1.00;;;;;;5108084;28;20801;-70
2023/09/04 09:36:36;;;;;;;4.03;3.70;;;24.40;1.00;;;;;;5108184;28;20425;-69
2023/09/04 09:39:03;;;;;;;5.20;3.50;;;24.40;1.00;;;;;;5108458;28;20281;-70
2023/09/04 09:41:29;;;;;;;5.80;4.03;;;24.50;1.00;;;;;;5108513;28;20808;-70
2023/09/04 09:43:55;;;;;;;4.63;3.90;;;24.60;1.00;;;;;;5112476;28;20438;-69
2023/09/04 09:46:21;;;;;;;5.03;4.53;;;24.70;1.00;;;;;;5112617;28;20492;-70
2023/09/04 09:48:47;;;;;;;5.20;4.70;;;24.70;1.00;;;;;;5112024;28;20188;-69
2023/09/04 09:51:13;;;;;;;5.17;4.50;;;24.80;1.00;;;;;;5112599;28;20271;-69
2023/09/04 09:53:57;;;;;;;4.40;4.00;;;24.80;1.00;;;;;;5112309;28;20819;-69
2023/09/04 09:56:23;;;;;;;4.73;4.37;;;25.00;1.00;;;;;;5112673;28;20478;-70
2023/09/04 09:58:49;;;;;;;4.40;4.10;;;25.00;1.00;;;;;;5112057;28;20453;-70
2023/09/04 10:01:16;;;;;;;4.50;4.20;;;25.00;1.00;;;;;;5112722;28;20418;-70
2023/09/04 10:03:44;;;;;;;4.80;4.40;;;25.00;1.00;;;;;;5116017;28;20421;-69
2023/09/04 10:06:23;;;;;;;7.53;4.63;;;25.10;1.00;;;;;;5115937;28;20417;-69
2023/09/04 10:08:51;;;;;;;4.83;4.43;;;25.10;1.00;;;;;;5116247;28;20774;-70
2023/09/04 10:11:17;;;;;;;6.03;5.43;;;25.20;1.00;;;;;;5116212;28;20413;-72
2023/09/04 10:14:02;;;;;;;6.30;4.17;;;25.30;1.00;;;;;;5116327;28;20418;-70
2023/09/04 10:16:32;;;;;;;6.00;5.27;;;25.30;1.00;;;;;;5116794;28;20493;-70
2023/09/04 10:19:01;;;;;;;6.30;4.57;;;25.40;1.00;;;;;;5116147;28;20450;-71
2023/09/04 10:21:32;;;;;;;5.37;4.97;;;25.50;1.00;;;;;;5115970;28;20417;-70
2023/09/04 10:24:02;;;;;;;5.50;5.00;;;25.60;1.00;;;;;;5097864;28;20532;-71
2023/09/04 10:26:38;;;;;;;4.80;4.40;;;25.60;1.00;;;;;;5115572;28;20414;-72
2023/09/04 10:29:10;;;;;;;4.70;4.40;;;25.70;1.00;;;;;;5116100;28;20413;-71
2023/09/04 10:31:39;;;;;;;5.23;4.83;;;25.70;1.00;;;;;;5115415;28;20416;-71
2023/09/04 10:34:04;;;;;;;4.70;4.40;;;25.70;1.00;;;;;;5115733;28;20935;-71
2023/09/04 10:36:31;;;;;;;4.47;4.13;;;25.80;1.00;;;;;;5115432;28;20418;-71
2023/09/04 10:38:58;;;;;;;5.47;4.93;;;25.90;1.00;;;;;;5116473;28;20625;-70
2023/09/04 10:41:25;;;;;;;4.60;4.30;;;26.00;1.00;;;;;;5115488;28;20410;-70
2023/09/04 10:43:51;;;;;;;4.57;4.17;;;26.10;1.00;;;;;;5104217;28;20447;-71
2023/09/04 10:46:17;;;;;;;5.03;4.63;;;26.20;1.00;;;;;;5101379;28;20513;-72
2023/09/04 10:48:46;;;;;;;5.17;4.67;;;26.30;1.00;;;;;;5077230;28;20184;-70
2023/09/04 10:51:26;;;;;;;4.67;4.27;;;26.40;1.00;;;;;;5115401;28;20410;-70
2023/09/04 10:53:52;;;;;;;4.83;4.43;;;26.50;1.00;;;;;;5113701;28;20468;-71
2023/09/04 10:56:18;;;;;;;5.20;4.80;;;26.60;1.00;;;;;;5115089;28;20421;-71
2023/09/04 10:59:13;;;;;;;4.73;4.27;;;26.70;1.00;;;;;;5114860;28;20549;-69
2023/09/04 11:01:39;;;;;;;5.77;4.70;;;26.70;1.00;;;;;;5096871;28;20193;-68
2023/09/04 11:04:09;;;;;;;9.60;5.37;;;26.80;1.00;;;;;;5114745;28;20425;-68
2023/09/04 11:06:39;;;;;;;4.97;4.57;;;26.80;1.00;;;;;;5115018;28;20249;-68
2023/09/04 11:09:09;;;;;;;4.80;4.50;;;26.90;1.00;;;;;;5115073;28;20980;-70
2023/09/04 11:11:35;;;;;;;4.47;4.13;;;27.00;1.00;;;;;;5114582;28;20460;-69
2023/09/04 11:14:09;;;;;;;5.40;4.90;;;27.10;1.00;;;;;;5114223;28;20438;-69
2023/09/04 11:16:48;;;;;;;4.47;4.13;;;27.20;1.00;;;;;;5114970;28;20410;-71
2023/09/04 11:19:15;;;;;;;5.40;4.90;;;27.20;1.00;;;;;;5114508;28;20497;-69
2023/09/04 11:21:46;;;;;;;4.60;4.30;;;27.20;1.00;;;;;;5114832;28;20403;-69
2023/09/04 11:24:12;;;;;;;4.63;4.23;;;27.10;1.00;;;;;;5114856;28;20942;-69
2023/09/04 11:26:38;;;;;;;4.20;3.90;;;27.30;1.00;;;;;;5114386;28;20440;-69
2023/09/04 11:29:05;;;;;;;4.43;4.13;;;27.40;1.00;;;;;;5114152;28;20226;-69
2023/09/04 11:31:32;;;;;;;4.70;4.33;;;27.50;1.00;;;;;;5113959;28;20406;-68
2023/09/04 11:33:58;;;;;;;5.67;4.47;;;27.60;1.00;;;;;;5114230;28;20434;-68
2023/09/04 11:36:25;;;;;;;5.23;4.80;;;27.60;1.00;;;;;;5114261;28;20482;-70
2023/09/04 11:39:12;;;;;;;5.53;5.03;;;27.60;1.00;;;;;;5114063;28;20526;-69
2023/09/04 11:41:38;;;;;;;4.80;4.50;;;27.60;1.00;;;;;;5113669;28;20417;-70
2023/09/04 11:44:05;;;;;;;4.63;4.23;;;27.70;1.00;;;;;;5113878;28;20422;-70
2023/09/04 11:46:32;;;;;;;5.27;4.83;;;27.80;1.00;;;;;;5113707;28;20649;-68
2023/09/04 11:48:57;;;;;;;5.13;4.70;;;27.90;1.00;;;;;;5113890;28;20415;-70
2023/09/04 11:51:23;;;;;;;4.63;4.33;;;27.80;1.00;;;;;;5113797;28;20428;-68
2023/09/04 11:53:49;;;;;;;5.23;4.83;;;27.70;1.00;;;;;;5113519;28;20589;-68
2023/09/04 11:56:15;;;;;;;4.60;4.00;;;27.90;1.00;;;;;;5113784;28;20173;-68
2023/09/04 11:58:40;;;;;;;5.20;4.80;;;28.00;1.00;;;;;;5113483;28;20267;-69
2023/09/04 12:01:06;;;;;;;5.20;4.70;;;28.20;1.00;;;;;;5113769;28;20406;-68
2023/09/04 12:03:31;;;;;;;5.10;4.80;;;28.30;1.00;;;;;;5112938;28;20179;-69
2023/09/04 12:05:57;;;;;;;5.30;4.90;;;28.30;1.00;;;;;;5112935;28;20226;-71
2023/09/04 12:08:23;;;;;;;4.93;4.53;;;28.40;1.00;;;;;;5113222;28;20233;-68
2023/09/04 12:10:51;;;;;;;4.87;4.57;;;28.40;1.00;;;;;;5113392;28;20575;-69
2023/09/04 12:13:17;;;;;;;4.60;4.30;;;28.50;1.00;;;;;;5113256;28;20782;-69
2023/09/04 12:15:43;;;;;;;5.30;4.80;;;28.60;1.00;;;;;;5113406;28;20525;-68
2023/09/04 12:18:10;;;;;;;5.50;5.00;;;28.60;1.00;;;;;;5113171;28;20560;-68
2023/09/04 12:20:41;;;;;;;4.90;4.50;;;28.50;1.00;;;;;;5113432;28;20305;-68
2023/09/04 12:23:07;;;;;;;5.20;4.80;;;28.60;1.00;;;;;;5113201;28;20406;-69
2023/09/04 12:25:40;;;;;;;5.37;4.87;;;28.50;1.00;;;;;;5113776;28;20426;-68
2023/09/04 12:28:11;;;;;;;4.90;4.60;;;28.50;1.00;;;;;;5113505;28;20192;-69
2023/09/04 12:30:40;;;;;;;5.13;4.77;;;28.50;1.00;;;;;;5112925;28;20411;-69
2023/09/04 12:33:12;;;;;;;5.60;5.20;;;28.50;1.00;;;;;;5112742;28;20415;-69
2023/09/04 12:35:40;;;;;;;5.20;4.80;;;28.50;1.00;;;;;;5113305;28;20464;-69
2023/09/04 12:38:05;;;;;;;5.40;4.53;;;28.70;1.00;;;;;;5113183;28;20775;-68
2023/09/04 12:40:31;;;;;;;6.30;4.77;;;28.60;1.00;;;;;;5112792;28;20411;-71
2023/09/04 12:42:57;;;;;;;4.87;4.47;;;28.70;1.00;;;;;;5112696;28;20180;-70
2023/09/04 12:45:22;;;;;;;5.10;4.53;;;28.80;1.00;;;;;;5113059;28;20211;-68
2023/09/04 12:47:48;;;;;;;4.93;4.60;;;28.90;1.00;;;;;;5113232;28;20176;-69
2023/09/04 12:50:13;;;;;;;4.90;4.50;;;28.90;1.00;;;;;;5112868;28;20181;-70
2023/09/04 12:52:44;;;;;;;6.20;4.90;;;28.90;1.00;;;;;;5112689;28;20177;-68